Terminal Aerodrome Forecast
Issued by NWS Chicago, IL

Home | Current Version | Previous Version | Text Only | Print | Product List | Glossary On
Versions: 1 2 3 4 5 6 7 8 9 10 11 12 13 14 15 16 17 18 19 20 21 22 23 24 25 26 27 28
698
FTUS43 KLOT 241524 AAB
TAFRFD
TAF AMD
KRFD 241524Z 2415/2512 07009KT P6SM BKN019 OVC250
     FM241700 09012KT P6SM SCT019 OVC060
     FM242100 10014KT P6SM OVC015
     FM250000 11015G20KT P6SM VCSH OVC008
     FM250200 13015G22KT 2SM -SHRA BR OVC006
     FM250600 26022G32KT P6SM BKN020=

USA.gov is the U.S. government's official web portal to all federal, state and local government web resources and services.